Time;durP1;ratioP1;P1;durP2;ratioP2;P2;SDS_P1;SDS_P2;PMS_P1;PMS_P2;Temp;Humidity;BMP_temperature;BMP_pressure;BME280_temperature;BME280_humidity;BME280_pressure;Samples;Min_cycle;Max_cycle;Signal;HPM_P1;HPM_P2
2022/05/21 00:00:24;;;;;;;5.13;4.70;;;18.80;95.40;;;;;;5043145;28;20195;-80
2022/05/21 00:02:51;;;;;;;5.67;4.87;;;18.70;95.40;;;;;;5047408;28;20758;-81
2022/05/21 00:05:19;;;;;;;5.03;4.63;;;18.60;95.40;;;;;;5056644;28;20189;-80
2022/05/21 00:07:45;;;;;;;4.63;4.23;;;18.50;96.00;;;;;;5057222;28;20215;-81
2022/05/21 00:10:13;;;;;;;5.30;4.83;;;18.50;96.20;;;;;;5058710;28;20190;-81
2022/05/21 00:12:39;;;;;;;6.47;4.80;;;18.40;96.20;;;;;;5058990;28;20198;-80
2022/05/21 00:15:06;;;;;;;5.03;4.63;;;18.40;96.00;;;;;;5029144;28;20194;-81
2022/05/21 00:17:32;;;;;;;5.43;4.80;;;18.40;95.30;;;;;;5061703;28;20227;-80
2022/05/21 00:19:58;;;;;;;5.43;5.00;;;18.30;95.80;;;;;;5059260;28;20182;-81
2022/05/21 00:22:23;;;;;;;5.97;5.10;;;18.30;95.50;;;;;;5062505;28;20218;-81
2022/05/21 00:24:49;;;;;;;7.67;5.00;;;18.20;96.10;;;;;;5058386;28;20273;-80
2022/05/21 00:27:15;;;;;;;8.20;4.97;;;18.20;95.90;;;;;;5063150;28;20184;-79
2022/05/21 00:29:40;;;;;;;4.97;4.50;;;18.20;96.10;;;;;;5061926;28;20197;-80
2022/05/21 00:32:06;;;;;;;5.07;4.67;;;18.10;96.60;;;;;;5060573;28;20221;-80
2022/05/21 00:34:34;;;;;;;5.40;4.87;;;17.90;97.00;;;;;;5066325;28;20186;-79
2022/05/21 00:37:01;;;;;;;5.77;5.10;;;17.90;97.60;;;;;;5041737;28;20227;-81
2022/05/21 00:39:27;;;;;;;4.97;4.57;;;17.90;96.40;;;;;;5064326;28;20180;-80
2022/05/21 00:41:53;;;;;;;4.90;4.50;;;17.90;96.90;;;;;;5058279;28;20204;-80
2022/05/21 00:44:20;;;;;;;4.97;4.57;;;17.90;96.60;;;;;;5057950;28;20203;-80
2022/05/21 00:46:47;;;;;;;5.87;4.63;;;17.90;95.70;;;;;;5048375;28;20287;-80
2022/05/21 00:49:19;;;;;;;4.93;4.53;;;17.90;95.50;;;;;;5066438;28;20225;-81
2022/05/21 00:52:07;;;;;;;7.93;5.03;;;17.80;95.20;;;;;;5061776;28;20200;-82
2022/05/21 00:54:41;;;;;;;5.37;4.93;;;17.80;94.40;;;;;;5063979;28;20233;-81
2022/05/21 00:57:25;;;;;;;5.00;4.60;;;17.70;93.40;;;;;;5062314;28;20206;-80
2022/05/21 01:00:01;;;;;;;5.33;4.83;;;17.70;93.50;;;;;;5062961;28;20178;-80
2022/05/21 01:02:41;;;;;;;5.27;4.87;;;17.70;92.20;;;;;;5062445;28;20262;-80
2022/05/21 01:05:11;;;;;;;5.80;4.77;;;17.50;92.70;;;;;;5058061;28;20193;-80
2022/05/21 01:07:41;;;;;;;8.00;5.27;;;17.30;93.00;;;;;;5059719;28;20221;-80
2022/05/21 01:10:08;;;;;;;5.50;4.77;;;17.40;91.90;;;;;;5060505;28;20183;-81
2022/05/21 01:12:38;;;;;;;5.53;4.67;;;17.40;90.90;;;;;;5053298;28;20220;-81
2022/05/21 01:15:10;;;;;;;5.63;4.93;;;17.30;91.00;;;;;;5052224;28;20184;-81
2022/05/21 01:17:36;;;;;;;5.47;4.60;;;17.30;90.40;;;;;;5052489;28;20254;-81
2022/05/21 01:20:07;;;;;;;5.30;4.80;;;17.30;90.40;;;;;;5060105;28;20177;-81
2022/05/21 01:22:47;;;;;;;6.43;5.10;;;17.30;90.50;;;;;;5035253;28;20200;-81
2022/05/21 01:25:17;;;;;;;5.60;5.07;;;17.20;90.50;;;;;;5064535;28;20220;-81
2022/05/21 01:27:44;;;;;;;6.10;4.60;;;17.10;91.10;;;;;;5063868;28;20195;-81
2022/05/21 01:30:13;;;;;;;5.73;5.13;;;17.00;91.60;;;;;;5064590;28;20251;-80
2022/05/21 01:32:39;;;;;;;5.10;4.53;;;17.00;92.10;;;;;;5058825;28;20216;-81
2022/05/21 01:35:06;;;;;;;5.40;5.00;;;17.00;92.60;;;;;;5058485;28;20755;-81
2022/05/21 01:37:32;;;;;;;6.97;5.10;;;17.10;91.20;;;;;;5062287;28;20215;-80
2022/05/21 01:39:58;;;;;;;6.50;4.50;;;16.90;91.90;;;;;;5052712;28;20193;-81
2022/05/21 01:42:24;;;;;;;5.90;5.30;;;16.90;91.60;;;;;;5051503;28;20284;-81
2022/05/21 01:44:52;;;;;;;5.57;5.17;;;16.90;91.00;;;;;;5052049;28;20190;-80
2022/05/21 01:47:19;;;;;;;5.93;4.93;;;16.90;91.00;;;;;;5041749;28;20256;-80
2022/05/21 01:49:45;;;;;;;5.30;4.83;;;17.00;90.30;;;;;;5049631;28;20327;-81
2022/05/21 01:52:12;;;;;;;8.77;5.10;;;16.90;90.10;;;;;;5059622;28;20227;-80
2022/05/21 01:54:38;;;;;;;5.33;4.83;;;16.90;89.50;;;;;;5055525;28;20249;-81
2022/05/21 01:57:05;;;;;;;6.13;5.27;;;16.80;89.90;;;;;;5042278;28;20251;-81
2022/05/21 01:59:31;;;;;;;5.47;5.07;;;16.70;89.80;;;;;;5060562;28;20273;-80
2022/05/21 02:01:57;;;;;;;4.93;4.50;;;16.50;89.00;;;;;;5050510;28;20260;-80
2022/05/21 02:04:23;;;;;;;5.17;4.77;;;16.50;88.80;;;;;;5042192;28;20192;-80
2022/05/21 02:06:49;;;;;;;5.47;5.07;;;16.40;88.10;;;;;;5059788;28;20221;-80
2022/05/21 02:09:15;;;;;;;5.20;4.27;;;16.40;88.00;;;;;;5041481;28;20656;-81
2022/05/21 02:11:41;;;;;;;4.87;4.47;;;16.30;87.10;;;;;;5050100;28;20212;-82
2022/05/21 02:14:08;;;;;;;5.30;4.80;;;16.20;86.70;;;;;;5054040;28;20261;-80
2022/05/21 02:16:36;;;;;;;5.40;4.90;;;16.20;86.30;;;;;;5053916;28;20203;-81
2022/05/21 02:19:06;;;;;;;5.90;5.40;;;16.30;86.80;;;;;;5051723;28;20194;-81
2022/05/21 02:21:33;;;;;;;5.57;5.07;;;16.30;86.40;;;;;;5048392;28;20188;-81
2022/05/21 02:24:02;;;;;;;5.97;5.43;;;16.40;85.50;;;;;;5048876;28;20203;-81
2022/05/21 02:26:27;;;;;;;6.47;5.87;;;16.50;85.20;;;;;;5051495;28;20217;-80
2022/05/21 02:28:53;;;;;;;5.80;5.20;;;16.50;84.30;;;;;;5043066;28;20191;-81
2022/05/21 02:31:19;;;;;;;7.03;5.53;;;16.60;85.30;;;;;;5054268;28;20227;-81
2022/05/21 02:33:44;;;;;;;5.97;5.47;;;16.50;84.50;;;;;;5051642;28;20680;-81
2022/05/21 02:36:11;;;;;;;6.13;5.57;;;16.40;83.90;;;;;;5044716;28;20821;-81
2022/05/21 02:41:22;;;;;;;6.10;5.60;;;16.20;84.70;;;;;;5050744;28;20215;-82
2022/05/21 02:43:48;;;;;;;6.63;6.07;;;16.20;85.50;;;;;;5037704;28;20586;-82
2022/05/21 02:46:14;;;;;;;6.47;5.60;;;16.20;83.70;;;;;;5038427;28;20240;-82
2022/05/21 02:48:41;;;;;;;5.33;4.87;;;16.10;84.00;;;;;;5057653;28;20187;-82
2022/05/21 02:51:09;;;;;;;6.47;5.87;;;16.20;84.80;;;;;;5035020;28;20213;-81
2022/05/21 02:53:35;;;;;;;5.87;5.27;;;16.20;85.20;;;;;;5057521;28;20632;-81
2022/05/21 02:56:09;;;;;;;6.00;5.50;;;16.20;84.90;;;;;;5056446;28;20189;-81
2022/05/21 02:58:36;;;;;;;5.63;5.20;;;16.10;84.00;;;;;;5058798;28;20179;-81
2022/05/21 03:01:02;;;;;;;6.27;5.67;;;16.10;83.90;;;;;;5058218;28;20651;-82
2022/05/21 03:03:28;;;;;;;5.50;5.10;;;16.10;83.50;;;;;;5058599;28;20208;-81
2022/05/21 03:05:54;;;;;;;5.70;5.20;;;16.20;83.60;;;;;;5052734;28;20532;-81
2022/05/21 03:11:04;;;;;;;6.43;4.60;;;16.10;85.00;;;;;;5055299;28;20256;-81
2022/05/21 03:13:32;;;;;;;6.43;5.27;;;16.20;84.50;;;;;;5057904;28;20207;-81
2022/05/21 03:15:58;;;;;;;5.37;4.87;;;16.20;85.30;;;;;;5057916;28;20211;-81
2022/05/21 03:18:23;;;;;;;5.70;5.10;;;16.30;86.70;;;;;;5056677;28;20195;-82
2022/05/21 03:20:51;;;;;;;5.87;5.27;;;16.40;85.70;;;;;;5035795;28;20200;-81
2022/05/21 03:23:16;;;;;;;6.23;5.63;;;16.20;86.70;;;;;;5057311;28;20223;-81
2022/05/21 03:25:42;;;;;;;6.53;6.00;;;16.20;87.40;;;;;;5053632;28;20189;-81
2022/05/21 03:28:12;;;;;;;6.13;5.63;;;16.10;88.20;;;;;;5063914;28;20194;-81
2022/05/21 03:30:38;;;;;;;7.07;6.07;;;16.10;88.30;;;;;;5058666;28;20232;-82
2022/05/21 03:33:04;;;;;;;6.97;6.20;;;15.90;89.80;;;;;;5063678;28;20265;-82
2022/05/21 03:35:32;;;;;;;6.83;6.23;;;15.90;89.80;;;;;;5065309;28;20226;-81
2022/05/21 03:37:58;;;;;;;8.10;6.73;;;15.80;91.00;;;;;;5056387;28;20193;-81
2022/05/21 03:40:26;;;;;;;7.73;7.03;;;15.70;91.20;;;;;;5038277;28;20303;-81
2022/05/21 03:42:53;;;;;;;7.20;6.43;;;15.60;91.30;;;;;;5054458;28;20234;-81
2022/05/21 03:45:18;;;;;;;7.47;6.87;;;15.60;93.30;;;;;;5056085;28;20306;-81
2022/05/21 03:47:45;;;;;;;7.73;6.90;;;15.60;92.60;;;;;;5042603;28;20622;-80
2022/05/21 03:50:16;;;;;;;7.30;6.70;;;15.50;93.00;;;;;;5054204;28;20672;-81
2022/05/21 03:52:42;;;;;;;7.10;6.43;;;15.60;93.00;;;;;;5044173;28;20250;-81
2022/05/21 03:55:09;;;;;;;7.63;6.83;;;15.60;92.00;;;;;;5062421;28;20250;-81
2022/05/21 03:57:35;;;;;;;8.60;6.80;;;15.50;92.30;;;;;;5061067;28;20194;-80
2022/05/21 04:00:01;;;;;;;7.90;7.20;;;15.60;91.50;;;;;;5057550;28;20585;-81
2022/05/21 04:02:27;;;;;;;7.63;6.93;;;15.70;90.90;;;;;;5056150;28;20211;-82
2022/05/21 04:04:53;;;;;;;7.80;6.23;;;15.60;90.90;;;;;;5051463;28;20238;-81
2022/05/21 04:07:19;;;;;;;7.63;6.83;;;15.60;91.60;;;;;;5059525;28;20244;-81
2022/05/21 04:09:45;;;;;;;7.13;6.43;;;15.70;90.90;;;;;;5060411;28;20226;-81
2022/05/21 04:12:11;;;;;;;7.20;6.60;;;15.70;90.50;;;;;;5058947;28;20306;-80
2022/05/21 04:14:36;;;;;;;7.07;6.57;;;15.70;90.50;;;;;;5039060;28;20192;-80
2022/05/21 04:17:04;;;;;;;7.53;6.93;;;15.60;90.40;;;;;;5034864;28;20188;-80
2022/05/21 04:19:31;;;;;;;7.07;6.37;;;15.60;91.10;;;;;;5058142;28;20191;-80
2022/05/21 04:21:57;;;;;;;7.40;6.80;;;15.60;90.80;;;;;;5055262;28;20213;-81
2022/05/21 04:24:23;;;;;;;7.30;6.50;;;15.60;91.40;;;;;;5025607;28;20207;-80
2022/05/21 04:26:50;;;;;;;7.80;7.10;;;15.60;90.70;;;;;;5052156;28;20286;-80
2022/05/21 04:29:16;;;;;;;6.77;6.17;;;15.40;92.20;;;;;;5059712;28;20202;-80
2022/05/21 04:31:45;;;;;;;7.40;6.73;;;15.40;93.00;;;;;;5044856;28;20215;-80
2022/05/21 04:34:12;;;;;;;7.47;6.87;;;15.30;93.60;;;;;;5056405;28;20187;-80
2022/05/21 04:36:38;;;;;;;7.27;6.67;;;15.30;94.40;;;;;;5055492;28;20226;-81
2022/05/21 04:39:05;;;;;;;8.63;6.33;;;15.20;94.90;;;;;;5060999;28;20194;-80
2022/05/21 04:41:31;;;;;;;8.53;6.40;;;15.20;94.70;;;;;;5057858;28;20192;-81
2022/05/21 04:43:57;;;;;;;7.67;6.47;;;15.20;95.00;;;;;;5052516;28;20201;-81
2022/05/21 04:46:24;;;;;;;6.57;5.97;;;15.20;94.60;;;;;;5055964;28;20239;-80
2022/05/21 04:48:51;;;;;;;6.60;5.47;;;15.20;95.20;;;;;;5056877;28;20205;-80
2022/05/21 04:51:17;;;;;;;5.97;5.43;;;15.30;95.20;;;;;;5055789;28;20330;-80
2022/05/21 04:53:42;;;;;;;5.93;5.43;;;15.30;94.10;;;;;;5058714;28;20240;-81
2022/05/21 04:56:08;;;;;;;6.20;5.60;;;15.30;94.30;;;;;;5050613;28;20236;-81
2022/05/21 04:58:34;;;;;;;6.47;5.87;;;15.30;94.10;;;;;;5056076;28;20257;-80
2022/05/21 05:01:04;;;;;;;6.47;5.47;;;15.20;94.00;;;;;;5062594;28;20233;-80
2022/05/21 05:03:30;;;;;;;7.63;5.63;;;15.20;93.40;;;;;;5060372;28;20208;-80
2022/05/21 05:05:56;;;;;;;5.60;5.10;;;15.30;93.30;;;;;;5059067;28;20204;-80
2022/05/21 05:08:22;;;;;;;6.00;5.00;;;15.30;93.10;;;;;;5055004;28;20204;-80
2022/05/21 05:10:49;;;;;;;5.30;4.80;;;15.30;92.20;;;;;;5060286;28;20202;-80
2022/05/21 05:13:18;;;;;;;5.40;4.80;;;15.30;92.00;;;;;;5059410;28;20585;-81
2022/05/21 05:15:46;;;;;;;5.97;4.57;;;15.30;91.80;;;;;;5062623;28;20271;-80
2022/05/21 05:18:16;;;;;;;4.93;4.53;;;15.40;92.00;;;;;;5058126;28;20195;-80
2022/05/21 05:20:42;;;;;;;5.03;4.63;;;15.40;90.90;;;;;;5039197;28;20195;-80
2022/05/21 05:23:09;;;;;;;5.40;4.90;;;15.30;91.40;;;;;;5053673;28;20226;-79
2022/05/21 05:25:35;;;;;;;6.03;4.63;;;15.30;90.30;;;;;;5057098;28;20193;-80
2022/05/21 05:28:01;;;;;;;6.00;4.53;;;15.30;91.10;;;;;;5063741;28;20188;-80
2022/05/21 05:30:27;;;;;;;5.80;5.10;;;15.30;90.10;;;;;;5060630;28;20254;-81
2022/05/21 05:32:52;;;;;;;5.43;4.87;;;15.30;90.10;;;;;;5056833;28;20224;-79
2022/05/21 05:35:19;;;;;;;5.47;4.77;;;15.40;89.40;;;;;;5043596;28;20279;-81
2022/05/21 05:37:45;;;;;;;5.17;4.73;;;15.30;89.00;;;;;;5055546;28;20193;-79
2022/05/21 05:40:16;;;;;;;6.17;4.93;;;15.30;89.60;;;;;;5055135;28;20199;-80
2022/05/21 05:42:42;;;;;;;5.20;4.70;;;15.50;89.00;;;;;;5040639;28;20224;-79
2022/05/21 05:45:12;;;;;;;6.03;5.03;;;15.60;88.10;;;;;;5056925;28;20183;-79
2022/05/21 05:47:37;;;;;;;6.13;4.47;;;15.60;86.30;;;;;;5052075;28;20200;-80
2022/05/21 05:50:04;;;;;;;7.47;4.40;;;15.60;86.10;;;;;;5057244;28;20189;-79
2022/05/21 05:52:30;;;;;;;5.53;5.00;;;15.60;85.20;;;;;;5063527;28;20214;-79
2022/05/21 05:54:55;;;;;;;5.73;3.90;;;15.70;84.70;;;;;;5037482;28;20195;-80
2022/05/21 05:57:21;;;;;;;4.37;3.97;;;15.80;83.90;;;;;;5052900;28;20251;-79
2022/05/21 05:59:50;;;;;;;4.07;3.67;;;15.80;83.20;;;;;;5054305;28;20183;-80
2022/05/21 06:05:07;;;;;;;4.20;3.80;;;15.70;82.60;;;;;;5059117;28;20249;-80
2022/05/21 06:07:33;;;;;;;4.70;4.23;;;15.80;82.30;;;;;;5054955;28;20200;-80
2022/05/21 06:10:04;;;;;;;5.87;4.27;;;15.90;81.90;;;;;;5063338;28;20207;-80
2022/05/21 06:12:31;;;;;;;4.10;3.80;;;16.10;80.80;;;;;;5044491;28;20216;-80
2022/05/21 06:14:57;;;;;;;6.23;3.93;;;16.30;79.70;;;;;;5061491;28;20184;-79
2022/05/21 06:17:23;;;;;;;5.37;3.97;;;16.30;76.80;;;;;;5067479;28;20207;-80
2022/05/21 06:19:49;;;;;;;4.17;3.67;;;16.30;76.70;;;;;;5067520;28;20195;-80
2022/05/21 06:22:15;;;;;;;3.77;3.00;;;16.50;76.00;;;;;;5063117;28;20714;-81
2022/05/21 06:24:40;;;;;;;4.17;3.50;;;16.50;74.00;;;;;;5056138;28;20552;-80
2022/05/21 06:27:06;;;;;;;4.40;3.10;;;16.50;75.00;;;;;;5061276;28;20274;-80
2022/05/21 06:29:32;;;;;;;3.80;3.20;;;16.50;74.90;;;;;;5057175;28;20256;-81
2022/05/21 06:31:58;;;;;;;5.67;2.80;;;16.60;74.50;;;;;;5059892;28;20270;-80
2022/05/21 06:34:24;;;;;;;5.27;3.40;;;16.60;74.00;;;;;;5054517;28;20191;-80
2022/05/21 06:36:50;;;;;;;2.87;2.67;;;16.70;74.30;;;;;;5058175;28;20203;-82
2022/05/21 06:39:16;;;;;;;3.60;2.80;;;16.70;73.40;;;;;;5061877;28;20180;-80
2022/05/21 06:41:42;;;;;;;4.60;2.80;;;16.60;72.50;;;;;;5060009;28;20200;-81
2022/05/21 06:44:09;;;;;;;5.13;2.73;;;16.80;74.10;;;;;;5062328;28;20188;-80
2022/05/21 06:46:35;;;;;;;4.60;2.80;;;16.80;72.80;;;;;;5062061;28;20181;-79
2022/05/21 06:49:01;;;;;;;3.60;2.23;;;16.80;71.20;;;;;;5060923;28;20195;-80
2022/05/21 06:51:27;;;;;;;3.70;2.87;;;16.80;69.80;;;;;;5062160;28;20320;-80
2022/05/21 06:53:52;;;;;;;5.10;3.33;;;16.90;71.10;;;;;;5060927;28;20286;-80
2022/05/21 06:56:18;;;;;;;3.00;2.50;;;17.00;71.90;;;;;;5038991;28;20256;-80
2022/05/21 06:58:44;;;;;;;3.97;2.63;;;17.00;68.70;;;;;;5057523;28;20249;-79
2022/05/21 07:01:11;;;;;;;2.67;2.33;;;17.00;69.40;;;;;;5057785;28;20198;-80
2022/05/21 07:03:37;;;;;;;3.67;2.30;;;16.90;71.70;;;;;;5040647;28;20275;-79
2022/05/21 07:08:48;;;;;;;2.33;2.10;;;17.10;69.50;;;;;;5062068;28;20260;-80
2022/05/21 07:11:14;;;;;;;2.80;2.50;;;17.10;69.20;;;;;;5039694;28;20226;-80
2022/05/21 07:13:40;;;;;;;2.30;2.10;;;17.30;68.20;;;;;;5038910;28;20204;-82
2022/05/21 07:16:06;;;;;;;2.23;1.93;;;17.40;66.90;;;;;;5055088;28;20737;-81
2022/05/21 07:18:32;;;;;;;2.93;2.30;;;17.50;66.00;;;;;;5055043;28;20196;-79
2022/05/21 07:20:58;;;;;;;3.17;2.27;;;17.60;63.40;;;;;;5057733;28;20199;-80
2022/05/21 07:23:26;;;;;;;2.70;2.00;;;17.70;63.90;;;;;;5059759;28;20284;-80
2022/05/21 07:25:52;;;;;;;2.53;2.27;;;17.80;65.40;;;;;;5056782;28;20193;-80
2022/05/21 07:28:19;;;;;;;5.47;2.23;;;17.90;64.70;;;;;;5062129;28;20280;-80
2022/05/21 07:30:47;;;;;;;3.50;2.10;;;18.10;65.20;;;;;;5062970;28;20702;-80
2022/05/21 07:33:19;;;;;;;3.30;2.33;;;18.00;63.20;;;;;;5064496;28;20299;-80
2022/05/21 07:35:45;;;;;;;3.63;2.30;;;18.00;65.60;;;;;;5062266;28;20245;-79
2022/05/21 07:38:14;;;;;;;2.87;2.17;;;17.90;64.80;;;;;;5059090;28;20201;-82
2022/05/21 07:40:41;;;;;;;4.27;2.10;;;17.70;64.70;;;;;;5059355;28;20286;-81
2022/05/21 07:43:16;;;;;;;4.23;2.60;;;17.70;65.90;;;;;;5043857;28;20226;-80
2022/05/21 07:45:44;;;;;;;3.33;2.20;;;17.70;63.50;;;;;;5056036;28;20190;-81
2022/05/21 07:48:13;;;;;;;4.60;2.50;;;17.90;65.60;;;;;;5063892;28;20184;-81
2022/05/21 07:50:40;;;;;;;2.00;1.90;;;18.10;64.00;;;;;;5058101;28;20251;-80
2022/05/21 07:53:16;;;;;;;2.47;2.27;;;18.30;65.80;;;;;;5053052;28;20208;-81
2022/05/21 07:55:44;;;;;;;2.67;2.00;;;18.40;64.40;;;;;;5057755;28;20538;-81
2022/05/21 07:58:11;;;;;;;4.00;2.20;;;18.30;64.60;;;;;;5055982;28;20188;-80
2022/05/21 08:00:37;;;;;;;3.57;2.13;;;18.20;64.20;;;;;;5055383;28;20199;-81
2022/05/21 08:03:03;;;;;;;5.20;2.47;;;18.20;64.80;;;;;;5061472;28;20448;-82
2022/05/21 08:05:29;;;;;;;8.60;2.70;;;18.50;64.00;;;;;;5062423;28;20186;-80
2022/05/21 08:07:55;;;;;;;3.93;2.60;;;18.60;64.60;;;;;;5062171;28;20265;-79
2022/05/21 08:10:22;;;;;;;3.67;2.23;;;18.60;63.40;;;;;;5043811;28;20199;-80
2022/05/21 08:12:52;;;;;;;4.60;2.13;;;18.40;65.20;;;;;;5057448;28;20228;-80
2022/05/21 08:15:19;;;;;;;2.77;2.13;;;18.40;63.60;;;;;;5057426;28;20168;-81
2022/05/21 08:17:45;;;;;;;5.97;2.67;;;18.60;62.30;;;;;;5061813;28;20187;-81
2022/05/21 08:20:13;;;;;;;3.27;2.50;;;18.60;62.10;;;;;;5036384;28;20212;-80
2022/05/21 08:28:12;;;;;;;6.87;2.53;;;18.20;62.90;;;;;;5067911;28;20236;-80
2022/05/21 08:30:38;;;;;;;4.27;2.37;;;18.50;62.60;;;;;;5065843;28;20668;-80
2022/05/21 08:33:07;;;;;;;2.83;2.10;;;18.80;62.60;;;;;;5066215;28;20225;-80
2022/05/21 08:35:38;;;;;;;2.95;2.30;;;19.30;58.60;;;;;;5065865;28;20196;-80
2022/05/21 08:38:08;;;;;;;5.13;2.40;;;19.10;61.40;;;;;;5065116;28;20269;-80
2022/05/21 08:40:57;;;;;;;6.68;2.42;;;19.30;58.80;;;;;;5046854;28;20258;-81
2022/05/21 08:43:54;;;;;;;2.78;2.50;;;19.40;60.90;;;;;;5063213;28;20221;-81
2022/05/21 08:46:36;;;;;;;2.85;2.22;;;19.70;58.30;;;;;;5060731;28;20177;-82
2022/05/21 08:49:17;;;;;;;2.65;2.38;;;19.80;58.50;;;;;;5060157;28;20206;-79
2022/05/21 08:51:48;;;;;;;3.97;2.35;;;19.50;58.80;;;;;;5053621;28;20213;-79
2022/05/21 08:54:16;;;;;;;2.78;2.38;;;19.60;59.40;;;;;;5060315;28;20185;-79
2022/05/21 08:56:42;;;;;;;5.18;2.42;;;19.60;57.20;;;;;;5058713;28;20184;-81
2022/05/21 08:59:08;;;;;;;10.30;2.65;;;19.70;57.70;;;;;;5056820;28;20191;-81
2022/05/21 09:01:37;;;;;;;3.15;2.22;;;19.90;56.20;;;;;;5064143;28;20195;-81
2022/05/21 09:04:04;;;;;;;5.25;2.35;;;20.20;55.10;;;;;;5062491;28;20180;-80
2022/05/21 09:07:04;;;;;;;4.03;2.22;;;20.10;56.30;;;;;;5060830;28;20192;-80
2022/05/21 09:09:42;;;;;;;5.10;2.40;;;20.00;55.80;;;;;;5062457;28;20215;-80
2022/05/21 09:12:22;;;;;;;5.05;2.70;;;20.00;55.90;;;;;;5058755;28;20211;-79
2022/05/21 09:14:53;;;;;;;3.70;2.30;;;19.80;56.50;;;;;;5059636;28;20177;-80
2022/05/21 09:17:25;;;;;;;4.63;2.38;;;20.00;58.10;;;;;;5039990;28;20181;-79
2022/05/21 09:19:55;;;;;;;2.97;2.33;;;20.10;56.60;;;;;;5061031;28;20267;-80
2022/05/21 09:22:22;;;;;;;7.70;2.97;;;20.10;57.10;;;;;;5062110;28;20227;-80
2022/05/21 09:24:52;;;;;;;2.83;2.25;;;20.40;55.60;;;;;;5048168;28;20183;-80
2022/05/21 09:27:34;;;;;;;5.55;2.63;;;20.50;54.30;;;;;;5064665;28;20180;-80
2022/05/21 09:30:31;;;;;;;2.95;2.22;;;20.70;53.90;;;;;;5063067;28;20288;-81
2022/05/21 09:32:59;;;;;;;3.95;1.95;;;20.50;54.00;;;;;;5038747;28;20228;-80
2022/05/21 09:35:34;;;;;;;3.97;2.22;;;20.40;54.10;;;;;;5039675;28;20184;-81
2022/05/21 09:38:27;;;;;;;2.45;2.10;;;20.80;54.50;;;;;;5038672;28;20222;-81
2022/05/21 09:41:13;;;;;;;5.10;2.60;;;20.80;53.60;;;;;;5054635;28;20195;-82
2022/05/21 09:46:35;;;;;;;3.80;2.30;;;21.40;51.40;;;;;;5056067;28;20203;-80
2022/05/21 09:49:20;;;;;;;4.10;2.33;;;21.80;51.30;;;;;;5063488;28;20265;-79
2022/05/21 09:52:00;;;;;;;4.57;2.42;;;22.00;50.40;;;;;;5062091;28;20197;-81
2022/05/21 09:54:36;;;;;;;2.75;2.20;;;22.00;49.10;;;;;;5053347;28;20190;-80
2022/05/21 09:57:03;;;;;;;4.00;2.05;;;22.00;50.40;;;;;;5056864;28;20180;-81
2022/05/21 09:59:32;;;;;;;2.95;1.85;;;22.10;49.40;;;;;;5056264;28;20214;-80
2022/05/21 10:02:19;;;;;;;3.63;2.13;;;22.00;49.10;;;;;;5054050;28;20209;-80
2022/05/21 10:04:57;;;;;;;4.57;2.15;;;22.10;46.90;;;;;;5056751;28;20692;-81
2022/05/21 10:10:59;;;;;;;2.30;2.10;;;22.30;48.60;;;;;;5049464;28;20202;-81
2022/05/21 10:13:47;;;;;;;2.53;2.28;;;22.10;49.10;;;;;;5054404;28;20208;-81
2022/05/21 10:16:34;;;;;;;2.70;2.10;;;22.50;48.60;;;;;;5054268;28;20192;-80
2022/05/21 10:19:03;;;;;;;11.20;2.63;;;22.70;48.10;;;;;;5047466;28;20187;-80
2022/05/21 10:21:37;;;;;;;6.07;2.63;;;22.70;47.40;;;;;;5056540;28;20236;-81
2022/05/21 10:24:18;;;;;;;2.28;1.90;;;22.80;46.70;;;;;;5053443;28;20191;-80
2022/05/21 10:27:08;;;;;;;3.50;2.50;;;22.90;46.20;;;;;;5055827;28;20187;-81
2022/05/21 10:29:58;;;;;;;3.05;2.22;;;23.50;45.90;;;;;;5058965;28;20207;-82
2022/05/21 10:32:56;;;;;;;2.45;2.25;;;23.80;42.30;;;;;;5055332;28;20221;-82
2022/05/21 10:36:00;;;;;;;5.10;2.40;;;24.20;42.40;;;;;;5043555;28;20368;-80
2022/05/21 10:38:34;;;;;;;4.35;2.15;;;24.40;41.90;;;;;;5047379;28;20223;-81
2022/05/21 10:41:06;;;;;;;2.45;1.83;;;24.30;41.40;;;;;;5057855;28;20613;-80
2022/05/21 10:44:12;;;;;;;4.15;2.08;;;24.40;42.90;;;;;;5059281;28;20209;-82
2022/05/21 10:46:52;;;;;;;3.58;2.20;;;24.50;40.40;;;;;;5031313;28;20287;-80
2022/05/21 10:50:14;;;;;;;4.30;2.50;;;24.70;40.30;;;;;;5054270;28;20191;-81
2022/05/21 10:53:04;;;;;;;3.42;2.30;;;24.70;41.20;;;;;;5030019;28;20228;-81
2022/05/21 10:55:41;;;;;;;5.45;2.78;;;24.40;41.70;;;;;;5055523;28;20188;-80
2022/05/21 10:58:22;;;;;;;5.35;2.10;;;24.20;41.80;;;;;;5057648;28;20246;-79
2022/05/21 11:01:01;;;;;;;2.00;1.90;;;24.10;42.70;;;;;;5053163;28;20176;-81
2022/05/21 11:03:46;;;;;;;3.60;2.10;;;24.10;41.60;;;;;;5056618;28;20251;-81
2022/05/21 11:06:24;;;;;;;2.65;2.08;;;24.40;41.70;;;;;;5040621;28;20279;-80
2022/05/21 11:09:20;;;;;;;3.00;2.20;;;24.00;41.40;;;;;;5050620;28;20470;-80
2022/05/21 11:11:52;;;;;;;2.47;2.20;;;24.00;42.40;;;;;;5050163;28;20207;-81
2022/05/21 11:14:17;;;;;;;2.75;2.10;;;24.30;41.50;;;;;;5049356;28;20188;-81
2022/05/21 11:16:45;;;;;;;2.53;2.00;;;24.40;40.00;;;;;;5052483;28;20180;-81
2022/05/21 11:19:25;;;;;;;2.40;2.10;;;24.60;39.20;;;;;;5048489;28;20243;-80
2022/05/21 11:21:58;;;;;;;4.10;2.08;;;24.80;39.40;;;;;;5055078;28;20212;-81
2022/05/21 11:25:07;;;;;;;5.90;2.28;;;24.60;39.80;;;;;;5052471;28;20189;-81
2022/05/21 11:27:39;;;;;;;2.40;1.90;;;24.00;42.10;;;;;;5058352;28;20192;-81
2022/05/21 11:30:07;;;;;;;4.85;2.10;;;24.10;42.30;;;;;;5058782;28;20574;-80
2022/05/21 11:37:20;;;;;;;3.00;2.17;;;25.00;40.30;;;;;;5059623;28;20709;-81
2022/05/21 11:38:24;;;;;;;2.22;2.03;;;25.20;40.50;;;;;;5041486;28;20200;-80
2022/05/21 11:46:54;;;;;;;6.22;2.10;;;26.40;36.50;;;;;;5056897;28;20195;-82
2022/05/21 11:49:39;;;;;;;2.83;2.20;;;26.00;37.90;;;;;;5060611;28;20318;-81
2022/05/21 11:52:27;;;;;;;2.83;2.00;;;26.20;36.30;;;;;;5063867;28;20291;-80
2022/05/21 11:55:09;;;;;;;3.72;2.03;;;26.10;35.90;;;;;;5064071;28;20176;-81
2022/05/21 11:57:53;;;;;;;2.17;1.95;;;26.40;35.10;;;;;;5044549;28;20207;-82
2022/05/21 12:00:22;;;;;;;2.97;2.00;;;26.50;34.90;;;;;;5057888;28;20188;-81
2022/05/21 12:02:53;;;;;;;2.42;1.90;;;26.50;34.80;;;;;;5057237;28;20211;-81
2022/05/21 12:08:10;;;;;;;2.95;2.20;;;26.90;36.50;;;;;;5063924;28;20294;-81
2022/05/21 12:10:56;;;;;;;2.50;2.30;;;26.50;35.30;;;;;;5066073;28;20180;-81
2022/05/21 12:14:00;;;;;;;3.30;2.30;;;25.60;36.90;;;;;;5042186;28;20251;-81
2022/05/21 12:16:26;;;;;;;2.50;1.88;;;25.70;37.30;;;;;;5058706;28;20177;-81
2022/05/21 12:19:00;;;;;;;2.10;1.90;;;26.30;36.50;;;;;;5055652;28;20268;-79
2022/05/21 12:21:40;;;;;;;2.13;2.00;;;26.50;36.00;;;;;;5037462;28;20239;-82
2022/05/21 12:24:36;;;;;;;3.83;2.25;;;26.80;34.00;;;;;;5058214;28;20603;-82
2022/05/21 12:27:22;;;;;;;2.72;2.00;;;26.80;33.50;;;;;;5049533;28;20206;-83
2022/05/21 12:29:51;;;;;;;3.53;2.00;;;26.30;34.70;;;;;;5065357;28;20215;-81
2022/05/21 12:32:23;;;;;;;2.55;1.85;;;25.90;34.90;;;;;;5072578;28;20216;-80
2022/05/21 12:34:58;;;;;;;4.20;2.30;;;26.10;35.00;;;;;;5061680;28;20206;-81
2022/05/21 12:37:30;;;;;;;3.33;2.00;;;25.60;35.70;;;;;;5063405;28;20183;-82
2022/05/21 12:40:02;;;;;;;6.63;3.00;;;26.50;33.90;;;;;;5064307;28;20210;-81
2022/05/21 12:42:47;;;;;;;4.90;3.60;;;27.20;34.00;;;;;;5058518;28;20254;-82
2022/05/21 12:45:36;;;;;;;5.15;3.85;;;27.50;33.10;;;;;;5049540;28;20207;-82
2022/05/21 12:48:13;;;;;;;3.42;2.13;;;27.70;32.40;;;;;;5045520;28;20267;-82
2022/05/21 12:50:46;;;;;;;3.10;2.70;;;28.10;32.00;;;;;;5058108;28;20184;-82
2022/05/21 12:53:16;;;;;;;4.30;2.78;;;27.90;32.10;;;;;;5059804;28;20203;-82
2022/05/21 12:55:42;;;;;;;3.70;2.70;;;27.80;32.20;;;;;;5053352;28;20223;-82
2022/05/21 12:58:08;;;;;;;3.05;2.40;;;28.00;32.10;;;;;;5032377;28;20267;-82
2022/05/21 13:00:34;;;;;;;2.30;2.10;;;27.70;32.60;;;;;;5056991;28;20180;-82
2022/05/21 13:03:06;;;;;;;2.88;2.05;;;27.60;32.10;;;;;;5057224;28;20256;-82
2022/05/21 13:05:39;;;;;;;4.22;2.25;;;27.70;31.80;;;;;;5055014;28;20173;-82
2022/05/21 13:08:06;;;;;;;3.35;2.10;;;27.70;32.60;;;;;;5070034;28;20184;-82
2022/05/21 13:10:38;;;;;;;4.55;2.30;;;27.40;31.80;;;;;;5060681;28;20278;-82
2022/05/21 13:13:11;;;;;;;3.47;2.50;;;27.60;32.70;;;;;;5046068;28;20212;-82
2022/05/21 13:15:39;;;;;;;2.22;2.03;;;27.00;31.90;;;;;;5064946;28;20189;-82
2022/05/21 13:18:05;;;;;;;3.88;2.20;;;27.40;32.70;;;;;;5057175;28;20188;-82
2022/05/21 13:20:50;;;;;;;2.10;1.90;;;28.00;32.80;;;;;;5054320;28;20180;-83
2022/05/21 13:23:23;;;;;;;3.72;2.22;;;28.50;30.60;;;;;;5057922;28;20249;-82
2022/05/21 13:25:55;;;;;;;2.33;2.17;;;29.10;29.90;;;;;;5066201;28;20180;-83
2022/05/21 13:28:25;;;;;;;2.95;2.00;;;29.30;29.30;;;;;;5053609;28;20198;-83
2022/05/21 13:30:51;;;;;;;2.10;1.90;;;29.20;29.50;;;;;;5042666;28;20255;-82
2022/05/21 13:33:35;;;;;;;3.72;2.47;;;28.50;29.60;;;;;;5056012;28;20240;-82
2022/05/21 13:36:07;;;;;;;2.50;2.30;;;28.00;31.30;;;;;;5058875;28;20328;-83
2022/05/21 13:38:39;;;;;;;2.83;2.28;;;28.30;30.20;;;;;;5046942;28;20190;-82
2022/05/21 13:41:10;;;;;;;3.05;1.90;;;28.10;30.90;;;;;;5056897;28;20256;-82